Weather History for Midland Airpark, TX

Change the Weather History Date:

Tuesday, May 1, 2012

  Actual Average (KMAF) Record (KMAF)
Temperature  
Mean Temperature 80 °F 69 °F  
Max Temperature 97 °F 84 °F 99 °F (2009)
Min Temperature 64 °F 55 °F 34 °F (1970)
Degree Days  
Heating Degree Days 0 1  
Month to date heating degree days 1  
Since 1 July heating degree days 2657  
Cooling Degree Days 16 5  
Month to date cooling degree days 5  
Year to date cooling degree days 113  
Growing Degree Days 30 (Base 50)    
Moisture  
Dew Point 50 °F    
Average Humidity 41    
Maximum Humidity 78    
Minimum Humidity 10    
Precipitation  
Precipitation 0.00 in 0.03 in 0.41 in (1959)
Month to date precipitation 0.03  
Year to date precipitation 2.55  
Snow  
Snow 0.00 in - - ()
Month to date snowfall  
Since 1 July snowfall  
Snow Depth -    
Sea Level Pressure  
Sea Level Pressure 29.83 in    
Wind  
Wind Speed 12 mph (South)    
Max Wind Speed 25 mph    
Max Gust Speed 32 mph    
Visibility 10 miles    
Events      
T = Trace of Precipitation, MM = Missing Value Source: NWS Daily Summary

Daily Weather History Graph

Daily Weather History Graph

Search for Another Location

Airport:

Trip Planner

Search our weather history database for the weather conditions in past years. The results will help you decide how hot, cold, wet, or windy it might be!

Date:

Astronomy

May. 01, 2012 Rise Set
Actual Time 7:01 AM CDT 8:29 PM CDT
Civil Twilight 6:35 AM CDT 8:55 PM CDT
Nautical Twilight 6:04 AM CDT 9:26 PM CDT
Astronomical Twilight 5:32 AM CDT 9:59 PM CDT
Moon 3:51 PM CDT (5/1) 3:42 AM CDT (5/1)
Length of Visible Light 14h 19m
Length of Day
13h 27m
Waxing Gibbous, 74% of the Moon is Illuminated
May 1
Waxing Gibbous
May 5
Full
May 12
Last Quarter
May 20
New
May 28
First Quarter

Hourly Weather History & Observations

Time (CDT) Temp. Heat Index Dew Point Humidity Pressure Visibility Wind Dir Wind Speed Gust Speed Precip Events Conditions
12:15 AM 76.1 °F - 43.9 °F 32% 29.86 in 10.0 mi SSW 10.4 mph - N/A   Clear
12:35 AM 74.8 °F - 44.8 °F 34% 29.86 in 10.0 mi SSE 6.9 mph - N/A   Clear
12:55 AM 73.8 °F - 45.7 °F 37% 29.86 in 10.0 mi South 6.9 mph - N/A   Clear
1:15 AM 73.4 °F - 45.9 °F 37% 29.85 in 10.0 mi SSW 6.9 mph - N/A   Clear
1:35 AM 73.0 °F - 45.5 °F 37% 29.86 in 10.0 mi SW 8.1 mph - N/A   Clear
1:55 AM 72.1 °F - 45.7 °F 39% 29.87 in 10.0 mi SSW 10.4 mph - N/A   Clear
2:15 AM 72.0 °F - 45.9 °F 39% 29.87 in 10.0 mi SSW 10.4 mph - N/A   Clear
2:35 AM 70.9 °F - 46.2 °F 41% 29.87 in 10.0 mi South 8.1 mph - N/A   Clear
3:15 AM 68.7 °F - 46.6 °F 45% 29.87 in 10.0 mi SSW 5.8 mph - N/A   Clear
3:35 AM 69.1 °F - 46.8 °F 45% 29.87 in 10.0 mi South 9.2 mph - N/A   Clear
3:55 AM 69.4 °F - 47.1 °F 45% 29.86 in 10.0 mi South 9.2 mph - N/A   Clear
4:15 AM 69.6 °F - 48.0 °F 46% 29.88 in 10.0 mi SW 9.2 mph - N/A   Clear
4:35 AM 69.3 °F - 48.9 °F 48% 29.88 in 10.0 mi SSW 9.2 mph 16.1 mph N/A   Clear
5:15 AM 67.8 °F - 50.0 °F 53% 29.88 in 10.0 mi SSE 6.9 mph - N/A   Clear
5:35 AM 66.2 °F - 50.0 °F 56% 29.88 in 10.0 mi South 8.1 mph - N/A   Clear
5:55 AM 65.7 °F - 50.5 °F 58% 29.88 in 10.0 mi South 9.2 mph - N/A   Clear
6:15 AM 65.7 °F - 51.8 °F 61% 29.88 in 10.0 mi South 9.2 mph - N/A   Clear
6:35 AM 64.9 °F - 52.7 °F 64% 29.87 in 10.0 mi South 10.4 mph - N/A   Clear
6:55 AM 64.9 °F - 54.0 °F 68% 29.88 in 10.0 mi South 10.4 mph - N/A   Clear
7:15 AM 65.1 °F - 55.0 °F 70% 29.89 in 10.0 mi South 9.2 mph - N/A   Clear
7:35 AM 65.5 °F - 56.5 °F 73% 29.89 in 10.0 mi South 11.5 mph - N/A   Clear
8:15 AM 66.9 °F - 59.5 °F 77% 29.89 in 10.0 mi South 15.0 mph 23.0 mph N/A   Clear
8:35 AM 67.3 °F - 60.3 °F 78% 29.89 in 10.0 mi South 15.0 mph - N/A   Clear
8:55 AM 68.5 °F - 60.1 °F 74% 29.89 in 10.0 mi South 16.1 mph 21.9 mph N/A   Clear
9:15 AM 70.5 °F - 59.7 °F 69% 29.88 in 10.0 mi SSW 17.3 mph 21.9 mph N/A   Clear
9:35 AM 72.5 °F - 59.5 °F 64% 29.89 in 10.0 mi SSW 17.3 mph 20.7 mph N/A   Clear
9:55 AM 73.9 °F - 59.2 °F 60% 29.88 in 10.0 mi South 17.3 mph - N/A   Clear
10:15 AM 75.2 °F - 59.0 °F 57% 29.88 in 10.0 mi South 18.4 mph 24.2 mph N/A   Clear
10:35 AM 76.8 °F - 58.5 °F 53% 29.88 in 10.0 mi SSW 16.1 mph 23.0 mph N/A   Clear
10:55 AM 78.8 °F - 58.5 °F 50% 29.88 in 10.0 mi South 13.8 mph - N/A   Clear
11:15 AM 81.0 °F 81.0 °F 57.0 °F 44% 29.88 in 10.0 mi South 13.8 mph 19.6 mph N/A   Clear
11:35 AM 82.9 °F 81.9 °F 54.5 °F 37% 29.88 in 10.0 mi SSW 11.5 mph 20.7 mph N/A   Clear
11:55 AM 84.0 °F - 51.6 °F 33% 29.88 in 10.0 mi SW 11.5 mph 18.4 mph N/A   Clear
12:15 PM 85.6 °F - 51.4 °F 31% 29.87 in 10.0 mi SW 11.5 mph - N/A   Clear
12:35 PM 86.9 °F - 50.0 °F 28% 29.86 in 10.0 mi SSW 12.7 mph - N/A   Clear
12:55 PM 88.2 °F - 48.7 °F 26% 29.85 in 10.0 mi SSW 11.5 mph - N/A   Clear
1:15 PM 89.6 °F - 47.5 °F 23% 29.85 in 10.0 mi WSW 11.5 mph - N/A   Clear
1:35 PM 90.3 °F - 45.3 °F 21% 29.84 in 10.0 mi SW 5.8 mph 17.3 mph N/A   Clear
1:55 PM 91.2 °F - 43.5 °F 19% 29.83 in 10.0 mi SSW 9.2 mph - N/A   Clear
2:15 PM 92.3 °F - 41.4 °F 17% 29.82 in 10.0 mi SW 5.8 mph - N/A   Clear
2:35 PM 92.8 °F - 40.1 °F 16% 29.81 in 10.0 mi SW 3.5 mph 12.7 mph N/A   Clear
2:55 PM 94.3 °F - 37.2 °F 14% 29.80 in 10.0 mi SW 12.7 mph 18.4 mph N/A   Clear
3:15 PM 95.5 °F - 34.3 °F 12% 29.79 in 10.0 mi South 10.4 mph - N/A   Clear
3:35 PM 96.4 °F - 32.5 °F 11% 29.78 in 10.0 mi SSW 15.0 mph - N/A   Clear
3:55 PM 97.2 °F - 32.0 °F 10% 29.78 in 10.0 mi SSW 15.0 mph 21.9 mph N/A   Clear
4:15 PM 96.8 °F - 32.2 °F 10% 29.76 in 10.0 mi South 18.4 mph 21.9 mph N/A   Clear
4:35 PM 97.5 °F - 32.7 °F 10% 29.75 in 10.0 mi West 18.4 mph 27.6 mph N/A   Clear
4:55 PM 97.2 °F - 33.1 °F 11% 29.75 in 10.0 mi South 13.8 mph 25.3 mph N/A   Clear
5:15 PM 97.3 °F - 32.4 °F 10% 29.74 in 10.0 mi SW 12.7 mph 19.6 mph N/A   Clear
5:35 PM 97.0 °F - 32.2 °F 10% 29.74 in 10.0 mi SW 17.3 mph 24.2 mph N/A   Clear
5:55 PM 96.6 °F - 32.5 °F 10% 29.73 in 10.0 mi South 18.4 mph - N/A   Clear
6:15 PM 95.2 °F - 43.5 °F 17% 29.73 in 10.0 mi SSE 18.4 mph 25.3 mph N/A   Clear
6:35 PM 93.4 °F - 50.7 °F 23% 29.73 in 10.0 mi SSE 19.6 mph 27.6 mph N/A   Clear
6:55 PM 91.6 °F - 52.5 °F 26% 29.73 in 10.0 mi SSE 20.7 mph 25.3 mph N/A   Clear
7:15 PM 90.7 °F - 52.7 °F 27% 29.73 in 10.0 mi SSE 21.9 mph 28.8 mph N/A   Clear
7:35 PM 89.4 °F - 52.9 °F 29% 29.73 in 10.0 mi South 19.6 mph 28.8 mph N/A   Clear
7:55 PM 88.2 °F 86.1 °F 54.1 °F 31% 29.74 in 10.0 mi South 21.9 mph 28.8 mph N/A   Clear
8:15 PM 86.2 °F 84.9 °F 56.1 °F 36% 29.75 in 10.0 mi SSE 20.7 mph 31.1 mph N/A   Clear
8:35 PM 83.8 °F 83.6 °F 59.0 °F 43% 29.76 in 10.0 mi South 25.3 mph 32.2 mph N/A   Clear
8:55 PM 81.9 °F 82.3 °F 60.4 °F 48% 29.78 in 10.0 mi South 21.9 mph 31.1 mph N/A   Clear
9:15 PM 80.6 °F 81.5 °F 60.8 °F 51% 29.78 in 10.0 mi SSE 21.9 mph 31.1 mph N/A   Clear
9:35 PM 79.7 °F - 60.8 °F 52% 29.80 in 10.0 mi South 17.3 mph 24.2 mph N/A   Clear
9:55 PM 79.0 °F - 61.2 °F 54% 29.81 in 10.0 mi South 21.9 mph 29.9 mph N/A   Clear
10:15 PM 78.3 °F - 62.1 °F 57% 29.81 in 10.0 mi South 21.9 mph 28.8 mph N/A   Clear
10:35 PM 77.5 °F - 62.6 °F 60% 29.81 in 10.0 mi South 21.9 mph 27.6 mph N/A   Clear
10:55 PM 77.0 °F - 62.8 °F 61% 29.82 in 10.0 mi South 18.4 mph - N/A   Clear
11:15 PM 76.3 °F - 63.0 °F 63% 29.82 in 10.0 mi South 13.8 mph 17.3 mph N/A   Clear
11:35 PM 75.7 °F - 63.1 °F 65% 29.82 in 10.0 mi SSE 15.0 mph 20.7 mph N/A   Clear
11:55 PM 75.2 °F - 63.3 °F 66% 29.83 in 10.0 mi South 17.3 mph 20.7 mph N/A   Clear